createdAt,value
2017-11-18T00:02:12.641Z,1.50
2017-11-18T00:04:41.487Z,1.60
2017-11-18T00:07:10.296Z,1.50
2017-11-18T00:09:39.105Z,1.50
2017-11-18T00:12:07.958Z,1.60
2017-11-18T00:14:36.774Z,1.60
2017-11-18T00:17:05.620Z,1.60
2017-11-18T00:19:34.427Z,1.60
2017-11-18T00:22:03.263Z,1.50
2017-11-18T00:24:32.058Z,1.60
2017-11-18T00:27:00.887Z,1.60
2017-11-18T00:29:29.692Z,1.50
2017-11-18T00:31:58.534Z,1.50
2017-11-18T00:34:28.097Z,1.60
2017-11-18T00:36:56.890Z,1.50
2017-11-18T00:39:25.737Z,1.60
2017-11-18T00:41:55.290Z,1.50
2017-11-18T00:44:24.112Z,1.50
2017-11-18T00:46:52.919Z,1.50
2017-11-18T00:49:22.526Z,1.50
2017-11-18T00:51:52.091Z,1.50
2017-11-18T00:54:20.946Z,1.50
2017-11-18T00:56:49.992Z,1.60
2017-11-18T00:59:18.792Z,1.70
2017-11-18T01:01:47.630Z,1.60
2017-11-18T01:04:16.437Z,1.60
2017-11-18T01:06:45.288Z,1.60
2017-11-18T01:09:14.096Z,1.60
2017-11-18T01:11:42.943Z,1.60
2017-11-18T01:14:11.748Z,1.60
2017-11-18T01:16:41.351Z,1.70
2017-11-18T01:19:10.919Z,1.70
2017-11-18T01:21:39.732Z,1.70
2017-11-18T01:24:08.596Z,1.70
2017-11-18T01:26:37.391Z,1.70
2017-11-18T01:29:06.238Z,1.70
2017-11-18T01:31:35.032Z,1.70
2017-11-18T01:34:03.840Z,1.60
2017-11-18T01:36:32.713Z,1.50
2017-11-18T01:39:01.517Z,1.50
2017-11-18T01:41:30.354Z,1.50
2017-11-18T01:43:59.184Z,1.60
2017-11-18T01:46:28.022Z,1.60
2017-11-18T01:48:56.812Z,1.60
2017-11-18T01:51:25.611Z,1.70
2017-11-18T01:53:54.461Z,1.70
2017-11-18T01:56:23.267Z,1.70
2017-11-18T01:58:52.103Z,1.70
2017-11-18T02:01:21.390Z,1.70
2017-11-18T02:03:50.257Z,1.70
2017-11-18T02:06:19.062Z,1.70
2017-11-18T02:08:47.863Z,1.80
2017-11-18T02:11:16.708Z,1.80
2017-11-18T02:13:45.508Z,1.80
2017-11-18T02:16:14.355Z,1.80
2017-11-18T02:18:43.927Z,1.90
2017-11-18T02:21:12.465Z,1.90
2017-11-18T02:23:40.978Z,1.90
2017-11-18T02:26:09.799Z,2.00
2017-11-18T02:28:38.018Z,2.00
2017-11-18T02:31:06.985Z,2.00
2017-11-18T02:33:36.286Z,1.90
2017-11-18T02:36:05.221Z,2.00
2017-11-18T02:38:34.107Z,1.90
2017-11-18T02:41:03.412Z,2.00
2017-11-18T02:43:31.603Z,1.90
2017-11-18T02:45:59.823Z,2.00
2017-11-18T02:48:29.101Z,2.00
2017-11-18T02:50:57.665Z,2.00
2017-11-18T02:53:26.184Z,2.00
2017-11-18T02:55:55.138Z,2.10
2017-11-18T02:58:23.412Z,2.10
2017-11-18T03:00:51.917Z,2.10
2017-11-18T03:03:20.726Z,2.10
2017-11-18T03:05:50.290Z,2.20
2017-11-18T03:08:19.135Z,2.20
2017-11-18T03:10:47.935Z,2.20
2017-11-18T03:13:16.791Z,2.20
2017-11-18T03:15:45.591Z,2.20
2017-11-18T03:18:15.179Z,2.20
2017-11-18T03:20:44.038Z,2.20
2017-11-18T03:23:12.830Z,2.20
2017-11-18T03:25:41.676Z,2.30
2017-11-18T03:28:11.266Z,2.20
2017-11-18T03:30:40.063Z,2.20
2017-11-18T03:33:09.672Z,2.30
2017-11-18T03:35:39.245Z,2.30
2017-11-18T03:38:08.099Z,2.30
2017-11-18T03:40:36.901Z,2.30
2017-11-18T03:43:05.709Z,2.40
2017-11-18T03:45:34.543Z,2.40
2017-11-18T03:48:03.487Z,2.40
2017-11-18T03:50:32.304Z,2.30
2017-11-18T03:53:01.099Z,2.30
2017-11-18T03:55:29.905Z,2.30
2017-11-18T03:57:59.531Z,2.40
2017-11-18T04:00:34.033Z,2.40
2017-11-18T04:03:02.906Z,2.40
2017-11-18T04:05:31.715Z,2.40
2017-11-18T04:08:01.218Z,2.40
2017-11-18T04:10:30.030Z,2.40
2017-11-18T04:12:59.609Z,2.50
2017-11-18T04:15:28.098Z,2.40
2017-11-18T04:17:56.907Z,2.50
2017-11-18T04:20:26.515Z,2.50
2017-11-18T04:22:56.081Z,2.50
2017-11-18T04:25:24.666Z,2.50
2017-11-18T04:27:53.465Z,2.50
2017-11-18T04:30:22.315Z,2.50
2017-11-18T04:32:51.196Z,2.50
2017-11-18T04:35:19.997Z,2.50
2017-11-18T04:37:48.851Z,2.50
2017-11-18T04:40:18.415Z,2.50
2017-11-18T04:42:47.249Z,2.50
2017-11-18T04:45:16.843Z,2.50
2017-11-18T04:47:45.702Z,2.50
2017-11-18T04:50:14.497Z,2.50
2017-11-18T04:52:43.307Z,2.50
2017-11-18T04:55:12.165Z,2.50
2017-11-18T04:57:40.967Z,2.50
2017-11-18T05:00:09.826Z,2.50
2017-11-18T05:02:38.627Z,2.50
2017-11-18T05:05:06.856Z,2.50
2017-11-18T05:07:35.663Z,2.50
2017-11-18T05:10:04.600Z,2.50
2017-11-18T05:12:33.460Z,2.50
2017-11-18T05:15:02.252Z,2.50
2017-11-18T05:17:31.158Z,2.50
2017-11-18T05:19:59.957Z,2.50
2017-11-18T05:22:28.821Z,2.60
2017-11-18T05:24:57.617Z,2.60
2017-11-18T05:27:26.437Z,2.50
2017-11-18T05:29:55.234Z,2.50
2017-11-18T05:32:24.032Z,2.50
2017-11-18T05:34:53.090Z,2.50
2017-11-18T05:37:21.611Z,2.50
2017-11-18T05:39:50.448Z,2.50
2017-11-18T05:42:19.249Z,2.50
2017-11-18T05:44:48.104Z,2.40
2017-11-18T05:47:17.679Z,2.40
2017-11-18T05:49:46.548Z,2.40
2017-11-18T05:52:15.390Z,2.40
2017-11-18T05:54:44.959Z,2.40
2017-11-18T05:57:13.824Z,2.30
2017-11-18T05:59:42.315Z,2.20
2017-11-18T06:02:10.534Z,2.20
2017-11-18T06:04:39.329Z,2.20
2017-11-18T06:07:08.182Z,2.20
2017-11-18T06:09:37.023Z,2.30
2017-11-18T06:12:06.591Z,2.20
2017-11-18T06:14:35.414Z,2.20
2017-11-18T06:17:04.221Z,2.20
2017-11-18T06:19:33.797Z,2.20
2017-11-18T06:22:02.598Z,2.20
2017-11-18T06:24:31.415Z,2.10
2017-11-18T06:27:00.206Z,2.10
2017-11-18T06:29:29.050Z,2.10
2017-11-18T06:31:57.850Z,2.10
2017-11-18T06:34:26.657Z,2.10
2017-11-18T06:36:56.276Z,2.00
2017-11-18T06:39:26.589Z,2.00
2017-11-18T06:41:56.195Z,2.00
2017-11-18T06:44:25.771Z,2.00
2017-11-18T06:46:54.608Z,1.90
2017-11-18T06:49:23.419Z,2.00
2017-11-18T06:51:52.227Z,2.00
2017-11-18T06:54:20.771Z,2.10
2017-11-18T06:56:50.370Z,2.10
2017-11-18T06:59:19.966Z,2.10
2017-11-18T07:01:49.550Z,2.10
2017-11-18T07:04:18.402Z,2.10
2017-11-18T07:06:47.203Z,2.10
2017-11-18T07:09:16.050Z,2.10
2017-11-18T07:11:44.855Z,2.20
2017-11-18T07:14:14.408Z,2.20
2017-11-18T07:16:43.248Z,2.20
2017-11-18T07:19:12.947Z,2.20
2017-11-18T07:21:41.777Z,2.10
2017-11-18T07:24:10.664Z,2.20
2017-11-18T07:26:40.292Z,2.10
2017-11-18T07:29:09.099Z,2.10
2017-11-18T07:31:37.944Z,2.10
2017-11-18T07:34:06.969Z,2.20
2017-11-18T07:36:35.815Z,2.20
2017-11-18T07:39:04.787Z,2.20
2017-11-18T07:41:33.581Z,2.30
2017-11-18T07:44:02.425Z,2.30
2017-11-18T07:46:31.237Z,2.40
2017-11-18T07:49:00.194Z,2.50
2017-11-18T07:51:29.007Z,2.50
2017-11-18T07:53:57.860Z,2.60
2017-11-18T07:56:27.419Z,2.70
2017-11-18T07:58:56.254Z,2.70
2017-11-18T08:01:25.826Z,2.80
2017-11-18T08:03:54.617Z,2.80
2017-11-18T08:06:23.455Z,3.00
2017-11-18T08:08:52.250Z,3.10
2017-11-18T08:11:21.099Z,3.20
2017-11-18T08:13:49.891Z,3.30
2017-11-18T08:16:18.731Z,3.40
2017-11-18T08:18:47.537Z,3.40
2017-11-18T08:21:16.377Z,3.50
2017-11-18T08:23:45.992Z,3.60
2017-11-18T08:26:15.562Z,3.60
2017-11-18T08:28:44.368Z,3.60
2017-11-18T08:31:13.172Z,3.60
2017-11-18T08:33:42.864Z,3.60
2017-11-18T08:36:23.434Z,3.60
2017-11-18T08:38:52.726Z,3.60
2017-11-18T08:41:21.524Z,3.60
2017-11-18T08:43:50.366Z,3.70
2017-11-18T08:46:20.165Z,3.70
2017-11-18T08:48:49.143Z,3.60
2017-11-18T08:51:18.751Z,3.70
2017-11-18T08:53:48.323Z,3.70
2017-11-18T08:56:16.657Z,3.70
2017-11-18T08:58:45.476Z,3.70
2017-11-18T09:01:14.331Z,3.80
2017-11-18T09:03:43.246Z,3.80
2017-11-18T09:06:12.051Z,3.80
2017-11-18T09:08:41.641Z,3.90
2017-11-18T09:11:10.452Z,4.00
2017-11-18T09:13:39.408Z,4.00
2017-11-18T09:16:08.231Z,4.00
2017-11-18T09:18:37.108Z,4.10
2017-11-18T09:21:06.127Z,4.20
2017-11-18T09:23:44.672Z,4.20
2017-11-18T09:26:13.903Z,4.30
2017-11-18T09:28:43.177Z,4.40
2017-11-18T09:31:12.754Z,4.60
2017-11-18T09:33:41.551Z,4.50
2017-11-18T09:36:10.235Z,4.60
2017-11-18T09:38:39.046Z,4.70
2017-11-18T09:41:08.617Z,4.90
2017-11-18T09:43:37.410Z,4.90
2017-11-18T09:46:06.268Z,5.00
2017-11-18T09:48:35.071Z,5.10
2017-11-18T09:51:03.614Z,5.20
2017-11-18T09:53:33.179Z,5.30
2017-11-18T09:56:02.018Z,5.30
2017-11-18T09:58:31.619Z,5.60
2017-11-18T10:01:01.220Z,5.70
2017-11-18T10:03:30.881Z,5.80
2017-11-18T10:05:59.069Z,5.80
2017-11-18T10:08:27.923Z,5.90
2017-11-18T10:10:56.729Z,6.00
2017-11-18T10:13:25.548Z,6.00
2017-11-18T10:15:54.399Z,6.10
2017-11-18T10:18:23.195Z,6.10
2017-11-18T10:20:52.052Z,6.10
2017-11-18T10:23:21.631Z,6.20
2017-11-18T10:25:50.471Z,6.10
2017-11-18T10:28:19.297Z,6.20
2017-11-18T10:30:48.149Z,6.20
2017-11-18T10:33:16.960Z,6.20
2017-11-18T10:35:45.781Z,6.20
2017-11-18T10:38:14.660Z,6.30
2017-11-18T10:40:43.473Z,6.30
2017-11-18T10:43:12.326Z,6.30
2017-11-18T10:45:41.913Z,6.30
2017-11-18T10:48:10.727Z,6.30
2017-11-18T10:50:39.545Z,6.30
2017-11-18T10:53:08.368Z,6.40
2017-11-18T10:55:37.221Z,6.40
2017-11-18T10:58:06.042Z,6.40
2017-11-18T11:00:35.673Z,6.40
2017-11-18T11:03:03.922Z,6.40
2017-11-18T11:05:33.590Z,6.50
2017-11-18T11:08:02.396Z,6.50
2017-11-18T11:10:31.231Z,6.50
2017-11-18T11:13:00.154Z,6.50
2017-11-18T11:15:28.980Z,6.40
2017-11-18T11:17:57.828Z,6.40
2017-11-18T11:20:26.655Z,6.40
2017-11-18T11:22:55.476Z,6.60
2017-11-18T11:25:25.059Z,6.40
2017-11-18T11:27:53.601Z,6.40
2017-11-18T11:30:22.412Z,6.40
2017-11-18T11:32:51.227Z,6.40
2017-11-18T11:35:20.107Z,6.30
2017-11-18T11:37:48.920Z,6.30
2017-11-18T11:40:18.539Z,6.30
2017-11-18T11:42:48.114Z,6.30
2017-11-18T11:45:16.620Z,6.30
2017-11-18T11:47:46.226Z,6.20
2017-11-18T11:50:15.069Z,6.20
2017-11-18T11:52:43.926Z,6.20
2017-11-18T11:55:12.579Z,6.10
2017-11-18T11:57:41.400Z,6.10
2017-11-18T12:00:10.204Z,6.10
2017-11-18T12:02:39.795Z,6.10
2017-11-18T12:05:09.411Z,6.10
2017-11-18T12:07:37.902Z,6.10
2017-11-18T12:10:06.748Z,6.10
2017-11-18T12:12:35.555Z,6.10
2017-11-18T12:15:04.655Z,6.00
2017-11-18T12:17:33.334Z,6.00
2017-11-18T12:20:02.907Z,5.90
2017-11-18T12:22:31.457Z,5.90
2017-11-18T12:24:59.955Z,5.90
2017-11-18T12:27:28.786Z,5.90
2017-11-18T12:29:57.620Z,5.80
2017-11-18T12:32:26.451Z,6.00
2017-11-18T12:34:55.322Z,6.80
2017-11-18T12:37:24.120Z,6.90
2017-11-18T12:39:53.004Z,6.50
2017-11-18T12:42:21.802Z,6.30
2017-11-18T12:44:50.599Z,6.10
2017-11-18T12:47:19.131Z,6.00
2017-11-18T12:49:48.698Z,5.90
2017-11-18T12:52:17.539Z,5.90
2017-11-18T12:54:46.360Z,5.90
2017-11-18T12:57:15.200Z,5.90
2017-11-18T12:59:44.032Z,5.80
2017-11-18T13:02:12.867Z,5.80
2017-11-18T13:04:41.679Z,5.80
2017-11-18T13:07:11.247Z,5.80
2017-11-18T13:09:40.079Z,5.80
2017-11-18T13:12:08.883Z,5.70
2017-11-18T13:14:37.680Z,5.70
2017-11-18T13:17:06.491Z,5.80
2017-11-18T13:19:36.198Z,5.80
2017-11-18T13:22:04.991Z,5.70
2017-11-18T13:24:33.854Z,5.70
2017-11-18T13:27:02.571Z,5.80
2017-11-18T13:29:31.371Z,5.80
2017-11-18T13:32:00.227Z,5.80
2017-11-18T13:34:29.067Z,5.80
2017-11-18T13:36:57.992Z,5.80
2017-11-18T13:39:26.834Z,6.50
2017-11-18T13:41:55.654Z,7.00
2017-11-18T13:44:25.271Z,6.50
2017-11-18T13:46:54.849Z,6.30
2017-11-18T13:49:24.576Z,6.20
2017-11-18T13:51:54.171Z,6.10
2017-11-18T13:54:22.993Z,6.10
2017-11-18T13:56:51.803Z,6.00
2017-11-18T13:59:20.642Z,6.00
2017-11-18T14:01:49.482Z,6.00
2017-11-18T14:04:18.376Z,5.90
2017-11-18T14:06:47.239Z,5.90
2017-11-18T14:09:16.826Z,5.90
2017-11-18T14:11:45.695Z,5.90
2017-11-18T14:14:14.211Z,5.90
2017-11-18T14:16:43.175Z,5.90
2017-11-18T14:19:11.722Z,5.90
2017-11-18T14:21:40.508Z,5.90
2017-11-18T14:24:09.360Z,6.30
2017-11-18T14:26:38.183Z,6.70
2017-11-18T14:29:07.034Z,6.50
2017-11-18T14:31:35.831Z,6.30
2017-11-18T14:34:04.518Z,6.10
2017-11-18T14:36:33.970Z,6.00
2017-11-18T14:39:02.626Z,6.00
2017-11-18T14:41:31.582Z,6.00
2017-11-18T14:44:00.440Z,6.00
2017-11-18T14:46:29.268Z,6.00
2017-11-18T14:48:58.219Z,5.90
2017-11-18T14:51:27.038Z,5.90
2017-11-18T14:53:55.899Z,5.90
2017-11-18T14:56:24.565Z,5.90
2017-11-18T14:58:53.988Z,5.90
2017-11-18T15:01:22.057Z,5.90
2017-11-18T15:03:50.091Z,5.90
2017-11-18T15:06:18.144Z,5.90
2017-11-18T15:08:46.159Z,5.90
2017-11-18T15:11:14.977Z,5.90
2017-11-18T15:13:42.994Z,5.80
2017-11-18T15:19:24.779Z,5.80
2017-11-18T15:22:00.101Z,5.80
2017-11-18T15:24:33.720Z,5.80
2017-11-18T15:27:20.838Z,5.80
2017-11-18T15:29:54.410Z,5.80
2017-11-18T15:32:24.169Z,5.80
2017-11-18T15:35:08.783Z,5.90
2017-11-18T15:37:52.566Z,5.80
2017-11-18T15:40:20.584Z,5.80
2017-11-18T15:42:50.245Z,5.80
2017-11-18T15:45:20.354Z,5.80
2017-11-18T15:47:54.059Z,5.80
2017-11-18T15:50:22.880Z,5.80
2017-11-18T15:53:06.143Z,5.80
2017-11-18T15:55:39.702Z,5.80
2017-11-18T15:58:09.071Z,5.80
2017-11-18T16:00:39.039Z,5.80
2017-11-18T16:03:07.671Z,5.80
2017-11-18T16:05:38.148Z,5.90
2017-11-18T16:08:21.535Z,5.90
2017-11-18T16:11:10.064Z,5.90
2017-11-18T16:13:39.997Z,5.80
2017-11-18T16:16:11.476Z,5.90
2017-11-18T16:18:39.996Z,5.90
2017-11-18T16:21:09.332Z,5.90
2017-11-18T16:23:37.980Z,5.80
2017-11-18T16:26:06.493Z,5.90
2017-11-18T16:28:35.062Z,5.90
2017-11-18T16:31:04.321Z,5.90
2017-11-18T16:33:32.882Z,5.80
2017-11-18T16:36:01.989Z,5.90
2017-11-18T16:38:30.164Z,5.90
2017-11-18T16:40:58.390Z,5.90
2017-11-18T16:43:28.514Z,5.90
2017-11-18T16:45:57.503Z,5.90
2017-11-18T16:48:27.248Z,5.90
2017-11-18T16:50:55.763Z,5.90
2017-11-18T16:53:24.946Z,5.90
2017-11-18T16:55:53.118Z,5.90
2017-11-18T16:58:21.345Z,5.90
2017-11-18T17:43:15.037Z,5.90
2017-11-18T17:45:44.043Z,5.90
2017-11-18T17:48:12.215Z,5.90
2017-11-18T17:50:40.437Z,5.90
2017-11-18T17:53:08.610Z,5.90
2017-11-18T17:55:36.826Z,5.90
2017-11-18T17:58:05.759Z,5.90
2017-11-18T18:00:33.965Z,5.90
2017-11-18T18:03:02.140Z,5.90
2017-11-18T18:05:30.390Z,6.00
2017-11-18T18:07:58.958Z,6.00
2017-11-18T18:10:27.142Z,6.00
2017-11-18T18:12:55.207Z,6.00
2017-11-18T18:15:23.470Z,6.00
2017-11-18T18:17:52.328Z,6.00
2017-11-18T18:20:22.309Z,5.90
2017-11-18T18:22:51.124Z,5.90
2017-11-18T18:25:26.167Z,5.90
2017-11-18T18:27:54.972Z,5.80
2017-11-18T18:30:24.578Z,5.70
2017-11-18T18:32:54.903Z,5.60
2017-11-18T18:35:32.826Z,5.60
2017-11-18T18:38:01.635Z,5.50
2017-11-18T18:40:30.435Z,5.50
2017-11-18T18:42:59.278Z,5.50
2017-11-18T18:45:29.503Z,5.30
2017-11-18T18:47:59.372Z,5.30
2017-11-18T18:50:32.877Z,5.30
2017-11-18T18:53:17.056Z,5.30
2017-11-18T18:55:46.994Z,5.20
2017-11-18T18:58:16.834Z,5.20
2017-11-18T19:00:45.664Z,5.20
2017-11-18T19:03:14.491Z,5.20
2017-11-18T19:05:49.435Z,5.10
2017-11-18T19:10:59.014Z,5.10
2017-11-18T19:13:27.834Z,5.10
2017-11-18T19:15:57.485Z,5.10
2017-11-18T19:18:26.316Z,5.10
2017-11-18T19:20:55.173Z,5.10
2017-11-18T19:23:24.694Z,5.10
2017-11-18T19:25:53.540Z,5.10
2017-11-18T19:28:23.259Z,5.00
2017-11-18T19:30:52.831Z,5.00
2017-11-18T19:33:21.924Z,5.00
2017-11-18T19:35:50.764Z,5.00
2017-11-18T19:38:19.619Z,5.00
2017-11-18T19:40:49.227Z,5.00
2017-11-18T19:43:18.120Z,5.00
2017-11-18T19:45:47.643Z,5.00
2017-11-18T19:48:17.287Z,5.00
2017-11-18T19:50:46.152Z,4.90
2017-11-18T19:53:14.957Z,4.90
2017-11-18T19:55:47.113Z,4.90
2017-11-18T19:58:16.603Z,4.90
2017-11-18T20:00:45.832Z,4.90
2017-11-18T20:03:15.772Z,4.90
2017-11-18T20:05:44.330Z,4.90
2017-11-18T20:08:12.526Z,4.90
2017-11-18T20:10:41.091Z,4.90
2017-11-18T20:13:09.925Z,4.90
2017-11-18T20:15:38.372Z,4.90
2017-11-18T20:18:07.272Z,4.80
2017-11-18T20:20:35.796Z,4.80
2017-11-18T20:23:04.447Z,4.80
2017-11-18T20:25:33.303Z,4.80
2017-11-18T20:28:02.914Z,4.80
2017-11-18T20:30:31.961Z,4.80
2017-11-18T20:33:00.760Z,4.80
2017-11-18T20:35:29.819Z,4.80
2017-11-18T20:37:58.644Z,4.80
2017-11-18T20:40:27.519Z,4.80
2017-11-18T20:42:56.393Z,4.80
2017-11-18T20:45:25.682Z,4.80
2017-11-18T20:47:54.527Z,4.80
2017-11-18T20:50:23.331Z,4.80
2017-11-18T20:52:52.977Z,4.80
2017-11-18T20:55:21.498Z,4.80
2017-11-18T20:57:50.344Z,4.80
2017-11-18T21:00:19.151Z,4.80
2017-11-18T21:02:47.997Z,4.80
2017-11-18T21:05:17.671Z,4.90
2017-11-18T21:07:46.474Z,4.80
2017-11-18T21:10:15.329Z,4.90
2017-11-18T21:12:45.010Z,4.90
2017-11-18T21:15:14.630Z,4.90
2017-11-18T21:17:43.446Z,4.90
2017-11-18T21:20:12.293Z,4.90
2017-11-18T21:22:41.865Z,4.90
2017-11-18T21:25:10.666Z,4.90
2017-11-18T21:27:39.537Z,4.90
2017-11-18T21:30:08.348Z,4.90
2017-11-18T21:32:37.222Z,4.90
2017-11-18T21:35:06.023Z,4.90
2017-11-18T21:37:34.576Z,4.90
2017-11-18T21:40:03.138Z,4.90
2017-11-18T21:42:31.955Z,4.90
2017-11-18T21:45:00.814Z,4.90
2017-11-18T21:47:29.671Z,4.90
2017-11-18T21:49:59.259Z,4.90
2017-11-18T21:52:28.095Z,4.90
2017-11-18T21:54:56.960Z,4.90
2017-11-18T21:57:25.778Z,4.90
2017-11-18T21:59:55.385Z,4.80
2017-11-18T22:02:25.768Z,4.80
2017-11-18T22:04:55.607Z,4.80
2017-11-18T22:07:24.877Z,4.80
2017-11-18T22:09:53.685Z,4.80
2017-11-18T22:12:22.537Z,4.80
2017-11-18T22:14:51.347Z,4.80
2017-11-18T22:17:20.489Z,4.80
2017-11-18T22:19:50.058Z,4.70
2017-11-18T22:22:18.862Z,4.70
2017-11-18T22:24:47.708Z,4.70
2017-11-18T22:27:16.532Z,4.80
2017-11-18T22:29:46.252Z,4.70
2017-11-18T22:32:15.095Z,4.70
2017-11-18T22:34:43.894Z,4.70
2017-11-18T22:37:12.734Z,4.70
2017-11-18T22:39:41.543Z,4.70
2017-11-18T22:42:11.151Z,4.70
2017-11-18T22:44:39.967Z,4.70
2017-11-18T22:47:08.968Z,4.70
2017-11-18T22:49:37.819Z,4.80
2017-11-18T22:52:07.386Z,4.80
2017-11-18T22:54:36.237Z,4.80
2017-11-18T22:57:04.731Z,4.70
2017-11-18T22:59:33.568Z,4.70
2017-11-18T23:02:02.375Z,4.80
2017-11-18T23:04:31.953Z,4.70
2017-11-18T23:07:00.797Z,4.80
2017-11-18T23:09:29.599Z,4.80
2017-11-18T23:11:58.435Z,4.80
2017-11-18T23:14:27.232Z,4.80
2017-11-18T23:16:56.036Z,4.80
2017-11-18T23:19:24.906Z,4.80
2017-11-18T23:21:53.714Z,4.70
2017-11-18T23:24:23.327Z,4.80
2017-11-18T23:26:52.906Z,4.80
2017-11-18T23:29:22.364Z,4.80
2017-11-18T23:31:51.189Z,4.80
2017-11-18T23:34:19.692Z,4.80
2017-11-18T23:36:48.540Z,4.80
2017-11-18T23:39:17.450Z,4.90
2017-11-18T23:41:46.291Z,4.90
2017-11-18T23:44:15.844Z,4.90
2017-11-18T23:46:45.272Z,4.90
2017-11-18T23:49:14.090Z,5.00
2017-11-18T23:51:43.670Z,5.00
2017-11-18T23:54:12.191Z,5.00
2017-11-18T23:56:41.017Z,5.00
2017-11-18T23:59:09.539Z,5.00
